sensor_id;sensor_type;location;lat;lon;timestamp;temperature;humidity
30534;DHT22;73248;52.398;9.814;2023-12-20T00:02:18;8.50;99.90
30534;DHT22;73248;52.398;9.814;2023-12-20T00:04:43;8.50;99.90
30534;DHT22;73248;52.398;9.814;2023-12-20T00:07:09;8.40;99.90
30534;DHT22;73248;52.398;9.814;2023-12-20T00:09:34;8.30;99.90
30534;DHT22;73248;52.398;9.814;2023-12-20T00:12:00;8.40;99.90
30534;DHT22;73248;52.398;9.814;2023-12-20T00:14:25;8.30;99.90
30534;DHT22;73248;52.398;9.814;2023-12-20T00:16:53;8.30;99.90
30534;DHT22;73248;52.398;9.814;2023-12-20T00:19:21;8.40;99.90
30534;DHT22;73248;52.398;9.814;2023-12-20T00:21:49;8.30;99.90
30534;DHT22;73248;52.398;9.814;2023-12-20T00:24:14;8.30;99.90
30534;DHT22;73248;52.398;9.814;2023-12-20T00:26:40;8.30;99.90
30534;DHT22;73248;52.398;9.814;2023-12-20T00:29:05;8.30;99.90
30534;DHT22;73248;52.398;9.814;2023-12-20T00:31:31;8.20;99.90
30534;DHT22;73248;52.398;9.814;2023-12-20T00:33:56;8.20;99.90
30534;DHT22;73248;52.398;9.814;2023-12-20T00:36:22;8.20;99.90
30534;DHT22;73248;52.398;9.814;2023-12-20T00:38:49;8.20;99.90
30534;DHT22;73248;52.398;9.814;2023-12-20T00:41:16;8.10;99.90
30534;DHT22;73248;52.398;9.814;2023-12-20T00:43:42;8.10;99.90
30534;DHT22;73248;52.398;9.814;2023-12-20T00:46:07;8.10;99.90
30534;DHT22;73248;52.398;9.814;2023-12-20T00:48:33;8.10;99.90
30534;DHT22;73248;52.398;9.814;2023-12-20T00:51:01;8.00;99.90
30534;DHT22;73248;52.398;9.814;2023-12-20T00:53:26;8.00;99.90
30534;DHT22;73248;52.398;9.814;2023-12-20T00:55:52;8.00;99.90
30534;DHT22;73248;52.398;9.814;2023-12-20T00:58:19;8.00;99.90
30534;DHT22;73248;52.398;9.814;2023-12-20T01:00:45;8.00;99.90
30534;DHT22;73248;52.398;9.814;2023-12-20T01:03:10;8.00;99.90
30534;DHT22;73248;52.398;9.814;2023-12-20T01:05:36;8.00;99.90
30534;DHT22;73248;52.398;9.814;2023-12-20T01:08:01;7.90;99.90
30534;DHT22;73248;52.398;9.814;2023-12-20T01:10:28;7.90;99.90
30534;DHT22;73248;52.398;9.814;2023-12-20T01:12:54;8.00;99.90
30534;DHT22;73248;52.398;9.814;2023-12-20T01:15:20;8.00;99.90
30534;DHT22;73248;52.398;9.814;2023-12-20T01:17:45;7.90;99.90
30534;DHT22;73248;52.398;9.814;2023-12-20T01:20:14;8.00;99.90
30534;DHT22;73248;52.398;9.814;2023-12-20T01:22:40;7.90;99.90
30534;DHT22;73248;52.398;9.814;2023-12-20T01:25:05;7.90;99.90
30534;DHT22;73248;52.398;9.814;2023-12-20T01:27:36;7.90;99.90
30534;DHT22;73248;52.398;9.814;2023-12-20T01:30:01;7.90;99.90
30534;DHT22;73248;52.398;9.814;2023-12-20T01:32:27;7.90;99.90
30534;DHT22;73248;52.398;9.814;2023-12-20T01:34:52;7.80;99.90
30534;DHT22;73248;52.398;9.814;2023-12-20T01:37:18;7.80;99.90
30534;DHT22;73248;52.398;9.814;2023-12-20T01:39:43;7.80;99.90
30534;DHT22;73248;52.398;9.814;2023-12-20T01:42:09;7.80;99.90
30534;DHT22;73248;52.398;9.814;2023-12-20T01:44:34;7.80;99.90
30534;DHT22;73248;52.398;9.814;2023-12-20T01:47:00;7.80;99.90
30534;DHT22;73248;52.398;9.814;2023-12-20T01:49:25;7.80;99.90
30534;DHT22;73248;52.398;9.814;2023-12-20T01:51:51;7.70;99.90
30534;DHT22;73248;52.398;9.814;2023-12-20T01:54:21;7.80;99.90
30534;DHT22;73248;52.398;9.814;2023-12-20T01:56:49;7.70;99.90
30534;DHT22;73248;52.398;9.814;2023-12-20T01:59:15;7.70;99.90
30534;DHT22;73248;52.398;9.814;2023-12-20T02:01:42;7.70;99.90
30534;DHT22;73248;52.398;9.814;2023-12-20T02:04:07;7.70;99.90
30534;DHT22;73248;52.398;9.814;2023-12-20T02:06:33;7.70;99.90
30534;DHT22;73248;52.398;9.814;2023-12-20T02:08:59;7.60;99.90
30534;DHT22;73248;52.398;9.814;2023-12-20T02:11:25;7.60;99.90
30534;DHT22;73248;52.398;9.814;2023-12-20T02:13:53;7.60;99.90
30534;DHT22;73248;52.398;9.814;2023-12-20T02:16:18;7.60;99.90
30534;DHT22;73248;52.398;9.814;2023-12-20T02:18:46;7.60;99.90
30534;DHT22;73248;52.398;9.814;2023-12-20T02:21:11;7.50;99.90
30534;DHT22;73248;52.398;9.814;2023-12-20T02:23:39;7.50;99.90
30534;DHT22;73248;52.398;9.814;2023-12-20T02:26:07;7.50;99.90
30534;DHT22;73248;52.398;9.814;2023-12-20T02:28:32;7.50;99.90
30534;DHT22;73248;52.398;9.814;2023-12-20T02:30:58;7.50;99.90
30534;DHT22;73248;52.398;9.814;2023-12-20T02:33:24;7.50;99.90
30534;DHT22;73248;52.398;9.814;2023-12-20T02:35:51;7.50;99.90
30534;DHT22;73248;52.398;9.814;2023-12-20T02:38:18;7.50;99.90
30534;DHT22;73248;52.398;9.814;2023-12-20T02:40:43;7.50;99.90
30534;DHT22;73248;52.398;9.814;2023-12-20T02:43:11;7.50;99.90
30534;DHT22;73248;52.398;9.814;2023-12-20T02:45:36;7.50;99.90
30534;DHT22;73248;52.398;9.814;2023-12-20T02:48:02;7.50;99.90
30534;DHT22;73248;52.398;9.814;2023-12-20T02:50:29;7.40;99.90
30534;DHT22;73248;52.398;9.814;2023-12-20T02:52:55;7.40;99.90
30534;DHT22;73248;52.398;9.814;2023-12-20T02:55:21;7.40;99.90
30534;DHT22;73248;52.398;9.814;2023-12-20T02:57:46;7.40;99.90
30534;DHT22;73248;52.398;9.814;2023-12-20T03:00:12;7.40;99.90
30534;DHT22;73248;52.398;9.814;2023-12-20T03:02:37;7.40;99.90
30534;DHT22;73248;52.398;9.814;2023-12-20T03:05:03;7.40;99.90
30534;DHT22;73248;52.398;9.814;2023-12-20T03:07:30;7.40;99.90
30534;DHT22;73248;52.398;9.814;2023-12-20T03:09:58;7.40;99.90
30534;DHT22;73248;52.398;9.814;2023-12-20T03:12:24;7.30;99.90
30534;DHT22;73248;52.398;9.814;2023-12-20T03:14:49;7.30;99.90
30534;DHT22;73248;52.398;9.814;2023-12-20T03:17:15;7.30;99.90
30534;DHT22;73248;52.398;9.814;2023-12-20T03:19:40;7.30;99.90
30534;DHT22;73248;52.398;9.814;2023-12-20T03:22:06;7.30;99.90
30534;DHT22;73248;52.398;9.814;2023-12-20T03:24:34;7.20;99.90
30534;DHT22;73248;52.398;9.814;2023-12-20T03:26:59;7.20;99.90
30534;DHT22;73248;52.398;9.814;2023-12-20T03:29:27;7.20;99.90
30534;DHT22;73248;52.398;9.814;2023-12-20T03:31:55;7.20;99.90
30534;DHT22;73248;52.398;9.814;2023-12-20T03:34:22;7.20;99.90
30534;DHT22;73248;52.398;9.814;2023-12-20T03:36:48;7.20;99.90
30534;DHT22;73248;52.398;9.814;2023-12-20T03:39:15;7.30;99.90
30534;DHT22;73248;52.398;9.814;2023-12-20T03:41:43;7.30;99.90
30534;DHT22;73248;52.398;9.814;2023-12-20T03:44:09;7.30;99.90
30534;DHT22;73248;52.398;9.814;2023-12-20T03:46:37;7.20;99.90
30534;DHT22;73248;52.398;9.814;2023-12-20T03:49:02;7.20;99.90
30534;DHT22;73248;52.398;9.814;2023-12-20T03:51:27;7.20;99.90
30534;DHT22;73248;52.398;9.814;2023-12-20T03:53:53;7.30;99.90
30534;DHT22;73248;52.398;9.814;2023-12-20T03:56:18;7.20;99.90
30534;DHT22;73248;52.398;9.814;2023-12-20T03:58:44;7.20;99.90
30534;DHT22;73248;52.398;9.814;2023-12-20T04:01:10;7.20;99.90
30534;DHT22;73248;52.398;9.814;2023-12-20T04:03:41;7.20;99.90
30534;DHT22;73248;52.398;9.814;2023-12-20T04:06:06;7.20;99.90
30534;DHT22;73248;52.398;9.814;2023-12-20T04:08:34;7.20;99.90
30534;DHT22;73248;52.398;9.814;2023-12-20T04:11:02;7.20;99.90
30534;DHT22;73248;52.398;9.814;2023-12-20T04:13:27;7.20;99.90
30534;DHT22;73248;52.398;9.814;2023-12-20T04:15:53;7.30;99.90
30534;DHT22;73248;52.398;9.814;2023-12-20T04:18:18;7.30;99.90
30534;DHT22;73248;52.398;9.814;2023-12-20T04:20:44;7.20;99.90
30534;DHT22;73248;52.398;9.814;2023-12-20T04:23:12;7.20;99.90
30534;DHT22;73248;52.398;9.814;2023-12-20T04:25:37;7.20;99.90
30534;DHT22;73248;52.398;9.814;2023-12-20T04:28:05;7.20;99.90
30534;DHT22;73248;52.398;9.814;2023-12-20T04:30:33;7.20;99.90
30534;DHT22;73248;52.398;9.814;2023-12-20T04:32:58;7.20;99.90
30534;DHT22;73248;52.398;9.814;2023-12-20T04:35:28;7.20;99.90
30534;DHT22;73248;52.398;9.814;2023-12-20T04:37:54;7.20;99.90
30534;DHT22;73248;52.398;9.814;2023-12-20T04:40:19;7.20;99.90
30534;DHT22;73248;52.398;9.814;2023-12-20T04:42:47;7.20;99.90
30534;DHT22;73248;52.398;9.814;2023-12-20T04:45:12;7.30;99.90
30534;DHT22;73248;52.398;9.814;2023-12-20T04:47:41;7.30;99.90
30534;DHT22;73248;52.398;9.814;2023-12-20T04:50:09;7.30;99.90
30534;DHT22;73248;52.398;9.814;2023-12-20T04:52:36;7.30;99.90
30534;DHT22;73248;52.398;9.814;2023-12-20T04:55:03;7.30;99.90
30534;DHT22;73248;52.398;9.814;2023-12-20T04:57:29;7.30;99.90
30534;DHT22;73248;52.398;9.814;2023-12-20T04:59:54;7.30;99.90
30534;DHT22;73248;52.398;9.814;2023-12-20T05:02:20;7.30;99.90
30534;DHT22;73248;52.398;9.814;2023-12-20T05:04:45;7.30;99.90
30534;DHT22;73248;52.398;9.814;2023-12-20T05:07:11;7.30;99.90
30534;DHT22;73248;52.398;9.814;2023-12-20T05:09:39;7.30;99.90
30534;DHT22;73248;52.398;9.814;2023-12-20T05:12:07;7.30;99.90
30534;DHT22;73248;52.398;9.814;2023-12-20T05:14:35;7.30;99.90
30534;DHT22;73248;52.398;9.814;2023-12-20T05:17:00;7.30;99.90
30534;DHT22;73248;52.398;9.814;2023-12-20T05:19:28;7.30;99.90
30534;DHT22;73248;52.398;9.814;2023-12-20T05:21:54;7.30;99.90
30534;DHT22;73248;52.398;9.814;2023-12-20T05:24:19;7.40;99.90
30534;DHT22;73248;52.398;9.814;2023-12-20T05:26:47;7.30;99.90
30534;DHT22;73248;52.398;9.814;2023-12-20T05:29:12;7.30;99.90
30534;DHT22;73248;52.398;9.814;2023-12-20T05:31:40;7.40;99.90
30534;DHT22;73248;52.398;9.814;2023-12-20T05:34:08;7.40;99.90
30534;DHT22;73248;52.398;9.814;2023-12-20T05:36:33;7.40;99.90
30534;DHT22;73248;52.398;9.814;2023-12-20T05:39:01;7.40;99.90
30534;DHT22;73248;52.398;9.814;2023-12-20T05:41:30;7.30;99.90
30534;DHT22;73248;52.398;9.814;2023-12-20T05:43:57;7.40;99.90
30534;DHT22;73248;52.398;9.814;2023-12-20T05:46:23;7.40;99.90
30534;DHT22;73248;52.398;9.814;2023-12-20T05:48:49;7.40;99.90
30534;DHT22;73248;52.398;9.814;2023-12-20T05:51:14;7.40;99.90
30534;DHT22;73248;52.398;9.814;2023-12-20T05:53:44;7.30;99.90
30534;DHT22;73248;52.398;9.814;2023-12-20T05:56:15;7.40;99.90
30534;DHT22;73248;52.398;9.814;2023-12-20T05:58:40;7.30;99.90
30534;DHT22;73248;52.398;9.814;2023-12-20T06:01:06;7.40;99.90
30534;DHT22;73248;52.398;9.814;2023-12-20T06:03:34;7.40;99.90
30534;DHT22;73248;52.398;9.814;2023-12-20T06:06:06;7.50;99.90
30534;DHT22;73248;52.398;9.814;2023-12-20T06:08:32;7.40;99.90
30534;DHT22;73248;52.398;9.814;2023-12-20T06:10:59;7.40;99.90
30534;DHT22;73248;52.398;9.814;2023-12-20T06:13:25;7.40;99.90
30534;DHT22;73248;52.398;9.814;2023-12-20T06:15:51;7.40;99.90
30534;DHT22;73248;52.398;9.814;2023-12-20T06:18:18;7.40;99.90
30534;DHT22;73248;52.398;9.814;2023-12-20T06:20:44;7.40;99.90
30534;DHT22;73248;52.398;9.814;2023-12-20T06:23:09;7.40;99.90
30534;DHT22;73248;52.398;9.814;2023-12-20T06:25:35;7.40;99.90
30534;DHT22;73248;52.398;9.814;2023-12-20T06:28:02;7.40;99.90
30534;DHT22;73248;52.398;9.814;2023-12-20T06:30:30;7.40;99.90
30534;DHT22;73248;52.398;9.814;2023-12-20T06:32:58;7.40;99.90
30534;DHT22;73248;52.398;9.814;2023-12-20T06:35:23;7.40;99.90
30534;DHT22;73248;52.398;9.814;2023-12-20T06:37:49;7.40;99.90
30534;DHT22;73248;52.398;9.814;2023-12-20T06:40:14;7.40;99.90
30534;DHT22;73248;52.398;9.814;2023-12-20T06:42:41;7.40;99.90
30534;DHT22;73248;52.398;9.814;2023-12-20T06:45:06;7.40;99.90
30534;DHT22;73248;52.398;9.814;2023-12-20T06:47:32;7.40;99.90
30534;DHT22;73248;52.398;9.814;2023-12-20T06:49:57;7.30;99.90
30534;DHT22;73248;52.398;9.814;2023-12-20T06:52:23;7.40;99.90
30534;DHT22;73248;52.398;9.814;2023-12-20T06:54:48;7.30;99.90
30534;DHT22;73248;52.398;9.814;2023-12-20T06:57:14;7.40;99.90
30534;DHT22;73248;52.398;9.814;2023-12-20T06:59:40;7.40;99.90
30534;DHT22;73248;52.398;9.814;2023-12-20T07:02:06;7.30;99.90
30534;DHT22;73248;52.398;9.814;2023-12-20T07:04:34;7.30;99.90
30534;DHT22;73248;52.398;9.814;2023-12-20T07:06:59;7.30;99.90
30534;DHT22;73248;52.398;9.814;2023-12-20T07:09:26;7.30;99.90
30534;DHT22;73248;52.398;9.814;2023-12-20T07:11:54;7.30;99.90
30534;DHT22;73248;52.398;9.814;2023-12-20T07:14:20;7.30;99.90
30534;DHT22;73248;52.398;9.814;2023-12-20T07:16:45;7.20;99.90
30534;DHT22;73248;52.398;9.814;2023-12-20T07:19:11;7.30;99.90
30534;DHT22;73248;52.398;9.814;2023-12-20T07:21:36;7.30;99.90
30534;DHT22;73248;52.398;9.814;2023-12-20T07:24:02;7.20;99.90
30534;DHT22;73248;52.398;9.814;2023-12-20T07:26:29;7.20;99.90
30534;DHT22;73248;52.398;9.814;2023-12-20T07:28:55;7.20;99.90
30534;DHT22;73248;52.398;9.814;2023-12-20T07:31:20;7.30;99.90
30534;DHT22;73248;52.398;9.814;2023-12-20T07:33:46;7.20;99.90
30534;DHT22;73248;52.398;9.814;2023-12-20T07:36:12;7.30;99.90
30534;DHT22;73248;52.398;9.814;2023-12-20T07:38:37;7.30;99.90
30534;DHT22;73248;52.398;9.814;2023-12-20T07:41:03;7.30;99.90
30534;DHT22;73248;52.398;9.814;2023-12-20T07:43:28;7.30;99.90
30534;DHT22;73248;52.398;9.814;2023-12-20T07:45:56;7.30;99.90
30534;DHT22;73248;52.398;9.814;2023-12-20T07:48:22;7.30;99.90
30534;DHT22;73248;52.398;9.814;2023-12-20T07:50:49;7.40;99.90
30534;DHT22;73248;52.398;9.814;2023-12-20T07:53:15;7.30;99.90
30534;DHT22;73248;52.398;9.814;2023-12-20T07:55:43;7.30;99.90
30534;DHT22;73248;52.398;9.814;2023-12-20T07:58:09;7.30;99.90
30534;DHT22;73248;52.398;9.814;2023-12-20T08:00:34;7.30;99.90
30534;DHT22;73248;52.398;9.814;2023-12-20T08:03:00;7.20;99.90
30534;DHT22;73248;52.398;9.814;2023-12-20T08:05:28;7.20;99.90
30534;DHT22;73248;52.398;9.814;2023-12-20T08:07:54;7.20;99.90
30534;DHT22;73248;52.398;9.814;2023-12-20T08:10:19;7.20;99.90
30534;DHT22;73248;52.398;9.814;2023-12-20T08:12:45;7.20;99.90
30534;DHT22;73248;52.398;9.814;2023-12-20T08:15:12;7.20;99.90
30534;DHT22;73248;52.398;9.814;2023-12-20T08:17:38;7.30;99.90
30534;DHT22;73248;52.398;9.814;2023-12-20T08:20:03;7.30;99.90
30534;DHT22;73248;52.398;9.814;2023-12-20T08:22:29;7.30;99.90
30534;DHT22;73248;52.398;9.814;2023-12-20T08:24:55;7.40;99.90
30534;DHT22;73248;52.398;9.814;2023-12-20T08:27:23;7.30;99.90
30534;DHT22;73248;52.398;9.814;2023-12-20T08:29:48;7.40;99.90
30534;DHT22;73248;52.398;9.814;2023-12-20T08:32:15;7.30;99.90
30534;DHT22;73248;52.398;9.814;2023-12-20T08:34:40;7.40;99.90
30534;DHT22;73248;52.398;9.814;2023-12-20T08:37:10;7.40;99.90
30534;DHT22;73248;52.398;9.814;2023-12-20T08:39:36;7.40;99.90
30534;DHT22;73248;52.398;9.814;2023-12-20T08:42:01;7.40;99.90
30534;DHT22;73248;52.398;9.814;2023-12-20T08:44:29;7.50;99.90
30534;DHT22;73248;52.398;9.814;2023-12-20T08:46:54;7.50;99.90
30534;DHT22;73248;52.398;9.814;2023-12-20T08:49:22;7.50;99.90
30534;DHT22;73248;52.398;9.814;2023-12-20T08:51:47;7.50;99.90
30534;DHT22;73248;52.398;9.814;2023-12-20T08:54:13;7.60;99.90
30534;DHT22;73248;52.398;9.814;2023-12-20T08:56:39;7.60;99.90
30534;DHT22;73248;52.398;9.814;2023-12-20T08:59:04;7.60;99.90
30534;DHT22;73248;52.398;9.814;2023-12-20T09:01:32;7.60;99.90
30534;DHT22;73248;52.398;9.814;2023-12-20T09:03:57;7.60;99.90
30534;DHT22;73248;52.398;9.814;2023-12-20T09:06:23;7.70;99.90
30534;DHT22;73248;52.398;9.814;2023-12-20T09:08:51;7.70;99.90
30534;DHT22;73248;52.398;9.814;2023-12-20T09:11:16;7.80;99.90
30534;DHT22;73248;52.398;9.814;2023-12-20T09:13:43;7.70;99.90
30534;DHT22;73248;52.398;9.814;2023-12-20T09:16:09;7.70;99.90
30534;DHT22;73248;52.398;9.814;2023-12-20T09:18:35;7.80;99.90
30534;DHT22;73248;52.398;9.814;2023-12-20T09:21:03;7.80;99.90
30534;DHT22;73248;52.398;9.814;2023-12-20T09:23:30;7.80;99.90
30534;DHT22;73248;52.398;9.814;2023-12-20T09:25:56;7.80;99.90
30534;DHT22;73248;52.398;9.814;2023-12-20T09:28:21;7.80;99.90
30534;DHT22;73248;52.398;9.814;2023-12-20T09:30:49;7.80;99.90
30534;DHT22;73248;52.398;9.814;2023-12-20T09:33:15;7.80;99.90
30534;DHT22;73248;52.398;9.814;2023-12-20T09:35:41;7.80;99.90
30534;DHT22;73248;52.398;9.814;2023-12-20T09:38:07;7.70;99.90
30534;DHT22;73248;52.398;9.814;2023-12-20T09:40:35;7.80;99.90
30534;DHT22;73248;52.398;9.814;2023-12-20T09:43:04;7.80;99.90
30534;DHT22;73248;52.398;9.814;2023-12-20T09:45:34;7.80;99.90
30534;DHT22;73248;52.398;9.814;2023-12-20T09:47:59;7.80;99.90
30534;DHT22;73248;52.398;9.814;2023-12-20T09:50:25;7.80;99.90
30534;DHT22;73248;52.398;9.814;2023-12-20T09:52:51;7.80;99.90
30534;DHT22;73248;52.398;9.814;2023-12-20T09:55:17;7.90;99.90
30534;DHT22;73248;52.398;9.814;2023-12-20T09:57:44;7.90;99.90
30534;DHT22;73248;52.398;9.814;2023-12-20T10:00:09;7.90;99.90
30534;DHT22;73248;52.398;9.814;2023-12-20T10:02:59;7.90;99.90
30534;DHT22;73248;52.398;9.814;2023-12-20T10:05:30;8.00;99.90
30534;DHT22;73248;52.398;9.814;2023-12-20T10:07:56;8.00;99.90
30534;DHT22;73248;52.398;9.814;2023-12-20T10:10:22;8.00;99.90
30534;DHT22;73248;52.398;9.814;2023-12-20T10:13:03;8.00;99.90
30534;DHT22;73248;52.398;9.814;2023-12-20T10:15:34;8.00;99.90
30534;DHT22;73248;52.398;9.814;2023-12-20T10:18:01;8.00;99.90
30534;DHT22;73248;52.398;9.814;2023-12-20T10:20:27;8.10;99.90
30534;DHT22;73248;52.398;9.814;2023-12-20T10:22:54;8.10;99.90
30534;DHT22;73248;52.398;9.814;2023-12-20T10:25:20;8.10;99.90
30534;DHT22;73248;52.398;9.814;2023-12-20T10:27:46;8.10;99.90
30534;DHT22;73248;52.398;9.814;2023-12-20T10:30:14;8.20;99.90
30534;DHT22;73248;52.398;9.814;2023-12-20T10:32:39;8.20;99.90
30534;DHT22;73248;52.398;9.814;2023-12-20T10:35:06;8.20;99.90
30534;DHT22;73248;52.398;9.814;2023-12-20T10:37:35;8.20;99.90
30534;DHT22;73248;52.398;9.814;2023-12-20T10:40:00;8.20;99.90
30534;DHT22;73248;52.398;9.814;2023-12-20T10:42:28;8.20;99.90
30534;DHT22;73248;52.398;9.814;2023-12-20T10:44:54;8.20;99.90
30534;DHT22;73248;52.398;9.814;2023-12-20T10:47:22;8.20;99.90
30534;DHT22;73248;52.398;9.814;2023-12-20T10:49:48;8.20;99.90
30534;DHT22;73248;52.398;9.814;2023-12-20T10:52:13;8.10;99.90
30534;DHT22;73248;52.398;9.814;2023-12-20T10:54:42;8.10;99.90
30534;DHT22;73248;52.398;9.814;2023-12-20T10:57:07;8.10;99.90
30534;DHT22;73248;52.398;9.814;2023-12-20T10:59:33;8.10;99.90
30534;DHT22;73248;52.398;9.814;2023-12-20T11:02:03;8.10;99.90
30534;DHT22;73248;52.398;9.814;2023-12-20T11:04:36;8.20;99.90
30534;DHT22;73248;52.398;9.814;2023-12-20T11:07:06;8.20;99.90
30534;DHT22;73248;52.398;9.814;2023-12-20T11:09:37;8.20;99.90
30534;DHT22;73248;52.398;9.814;2023-12-20T11:14:38;8.20;99.90
30534;DHT22;73248;52.398;9.814;2023-12-20T11:17:11;8.20;99.90
30534;DHT22;73248;52.398;9.814;2023-12-20T11:22:26;8.10;99.90
30534;DHT22;73248;52.398;9.814;2023-12-20T11:24:53;8.00;99.90
30534;DHT22;73248;52.398;9.814;2023-12-20T11:27:19;8.00;99.90
30534;DHT22;73248;52.398;9.814;2023-12-20T11:29:51;8.00;99.90
30534;DHT22;73248;52.398;9.814;2023-12-20T11:34:51;8.00;99.90
30534;DHT22;73248;52.398;9.814;2023-12-20T11:37:19;8.00;99.90
30534;DHT22;73248;52.398;9.814;2023-12-20T11:39:54;7.90;99.90
30534;DHT22;73248;52.398;9.814;2023-12-20T11:42:20;7.90;99.90
30534;DHT22;73248;52.398;9.814;2023-12-20T11:44:45;7.90;99.90
30534;DHT22;73248;52.398;9.814;2023-12-20T11:47:12;7.80;99.90
30534;DHT22;73248;52.398;9.814;2023-12-20T11:49:37;7.80;99.90
30534;DHT22;73248;52.398;9.814;2023-12-20T11:52:03;7.60;99.90
30534;DHT22;73248;52.398;9.814;2023-12-20T11:54:29;7.60;99.90
30534;DHT22;73248;52.398;9.814;2023-12-20T11:56:55;7.40;99.90
30534;DHT22;73248;52.398;9.814;2023-12-20T11:59:21;7.40;99.90
30534;DHT22;73248;52.398;9.814;2023-12-20T12:01:52;7.40;99.90
30534;DHT22;73248;52.398;9.814;2023-12-20T12:04:18;7.30;99.90
30534;DHT22;73248;52.398;9.814;2023-12-20T12:06:44;7.20;99.90
30534;DHT22;73248;52.398;9.814;2023-12-20T12:09:10;7.20;99.90
30534;DHT22;73248;52.398;9.814;2023-12-20T12:11:35;7.20;99.90
30534;DHT22;73248;52.398;9.814;2023-12-20T12:14:03;7.10;99.90
30534;DHT22;73248;52.398;9.814;2023-12-20T12:16:28;7.10;99.90
30534;DHT22;73248;52.398;9.814;2023-12-20T12:18:57;7.10;99.90
30534;DHT22;73248;52.398;9.814;2023-12-20T12:21:25;7.00;99.90
30534;DHT22;73248;52.398;9.814;2023-12-20T12:23:51;7.10;99.90
30534;DHT22;73248;52.398;9.814;2023-12-20T12:26:19;7.00;99.90
30534;DHT22;73248;52.398;9.814;2023-12-20T12:28:46;7.00;99.90
30534;DHT22;73248;52.398;9.814;2023-12-20T12:31:13;7.00;99.90
30534;DHT22;73248;52.398;9.814;2023-12-20T12:33:40;7.00;99.90
30534;DHT22;73248;52.398;9.814;2023-12-20T12:36:06;7.00;99.90
30534;DHT22;73248;52.398;9.814;2023-12-20T12:38:34;6.90;99.90
30534;DHT22;73248;52.398;9.814;2023-12-20T12:41:02;6.90;99.90
30534;DHT22;73248;52.398;9.814;2023-12-20T12:43:27;6.90;99.90
30534;DHT22;73248;52.398;9.814;2023-12-20T12:45:53;7.00;99.90
30534;DHT22;73248;52.398;9.814;2023-12-20T12:48:19;7.00;99.90
30534;DHT22;73248;52.398;9.814;2023-12-20T12:50:47;7.00;99.90
30534;DHT22;73248;52.398;9.814;2023-12-20T12:53:12;7.10;99.90
30534;DHT22;73248;52.398;9.814;2023-12-20T12:55:41;7.10;99.90
30534;DHT22;73248;52.398;9.814;2023-12-20T12:58:06;7.00;99.90
30534;DHT22;73248;52.398;9.814;2023-12-20T13:00:31;7.00;99.90
30534;DHT22;73248;52.398;9.814;2023-12-20T13:02:57;7.00;99.90
30534;DHT22;73248;52.398;9.814;2023-12-20T13:05:25;7.10;99.90
30534;DHT22;73248;52.398;9.814;2023-12-20T13:07:50;7.00;99.90
30534;DHT22;73248;52.398;9.814;2023-12-20T13:10:16;7.00;99.90
30534;DHT22;73248;52.398;9.814;2023-12-20T13:12:42;7.00;99.90
30534;DHT22;73248;52.398;9.814;2023-12-20T13:15:08;7.10;99.90
30534;DHT22;73248;52.398;9.814;2023-12-20T13:17:34;7.00;99.90
30534;DHT22;73248;52.398;9.814;2023-12-20T13:19:59;7.00;99.90
30534;DHT22;73248;52.398;9.814;2023-12-20T13:22:25;6.90;99.90
30534;DHT22;73248;52.398;9.814;2023-12-20T13:24:53;6.90;99.90
30534;DHT22;73248;52.398;9.814;2023-12-20T13:27:21;6.90;99.90
30534;DHT22;73248;52.398;9.814;2023-12-20T13:29:49;7.00;99.90
30534;DHT22;73248;52.398;9.814;2023-12-20T13:32:14;6.90;99.90
30534;DHT22;73248;52.398;9.814;2023-12-20T13:34:44;6.90;99.90
30534;DHT22;73248;52.398;9.814;2023-12-20T13:37:09;7.00;99.90
30534;DHT22;73248;52.398;9.814;2023-12-20T13:39:35;7.00;99.90
30534;DHT22;73248;52.398;9.814;2023-12-20T13:42:02;7.00;99.90
30534;DHT22;73248;52.398;9.814;2023-12-20T13:44:30;7.00;99.90
30534;DHT22;73248;52.398;9.814;2023-12-20T13:46:56;7.00;99.90
30534;DHT22;73248;52.398;9.814;2023-12-20T13:49:24;7.10;99.90
30534;DHT22;73248;52.398;9.814;2023-12-20T13:51:50;7.10;99.90
30534;DHT22;73248;52.398;9.814;2023-12-20T13:54:16;7.10;99.90
30534;DHT22;73248;52.398;9.814;2023-12-20T13:56:45;7.20;99.90
30534;DHT22;73248;52.398;9.814;2023-12-20T13:59:12;7.30;99.90
30534;DHT22;73248;52.398;9.814;2023-12-20T14:01:39;7.20;99.90
30534;DHT22;73248;52.398;9.814;2023-12-20T14:04:07;7.20;99.90
30534;DHT22;73248;52.398;9.814;2023-12-20T14:06:32;7.20;99.90
30534;DHT22;73248;52.398;9.814;2023-12-20T14:08:58;7.20;99.90
30534;DHT22;73248;52.398;9.814;2023-12-20T14:11:27;7.20;99.90
30534;DHT22;73248;52.398;9.814;2023-12-20T14:13:53;7.30;99.90
30534;DHT22;73248;52.398;9.814;2023-12-20T14:16:22;7.30;99.90
30534;DHT22;73248;52.398;9.814;2023-12-20T14:18:48;7.30;99.90
30534;DHT22;73248;52.398;9.814;2023-12-20T14:21:17;7.30;99.90
30534;DHT22;73248;52.398;9.814;2023-12-20T14:23:42;7.30;99.90
30534;DHT22;73248;52.398;9.814;2023-12-20T14:26:08;7.30;99.90
30534;DHT22;73248;52.398;9.814;2023-12-20T14:28:42;7.30;99.90
30534;DHT22;73248;52.398;9.814;2023-12-20T14:31:12;7.40;99.90
30534;DHT22;73248;52.398;9.814;2023-12-20T14:33:40;7.40;99.90
30534;DHT22;73248;52.398;9.814;2023-12-20T14:36:10;7.40;99.90
30534;DHT22;73248;52.398;9.814;2023-12-20T14:38:35;7.40;99.90
30534;DHT22;73248;52.398;9.814;2023-12-20T14:41:01;7.40;99.90
30534;DHT22;73248;52.398;9.814;2023-12-20T14:43:29;7.50;99.90
30534;DHT22;73248;52.398;9.814;2023-12-20T14:45:54;7.50;99.90
30534;DHT22;73248;52.398;9.814;2023-12-20T14:48:22;7.40;99.90
30534;DHT22;73248;52.398;9.814;2023-12-20T14:50:48;7.50;99.90
30534;DHT22;73248;52.398;9.814;2023-12-20T14:53:14;7.50;99.90
30534;DHT22;73248;52.398;9.814;2023-12-20T14:55:41;7.40;99.90
30534;DHT22;73248;52.398;9.814;2023-12-20T14:58:07;7.40;99.90
30534;DHT22;73248;52.398;9.814;2023-12-20T15:00:33;7.40;99.90
30534;DHT22;73248;52.398;9.814;2023-12-20T15:03:01;7.40;99.90
30534;DHT22;73248;52.398;9.814;2023-12-20T15:05:26;7.40;99.90
30534;DHT22;73248;52.398;9.814;2023-12-20T15:07:54;7.40;99.90
30534;DHT22;73248;52.398;9.814;2023-12-20T15:10:22;7.40;99.90
30534;DHT22;73248;52.398;9.814;2023-12-20T15:12:47;7.40;99.90
30534;DHT22;73248;52.398;9.814;2023-12-20T15:15:13;7.40;99.90
30534;DHT22;73248;52.398;9.814;2023-12-20T15:17:41;7.40;99.90
30534;DHT22;73248;52.398;9.814;2023-12-20T15:20:06;7.40;99.90
30534;DHT22;73248;52.398;9.814;2023-12-20T15:22:35;7.40;99.90
30534;DHT22;73248;52.398;9.814;2023-12-20T15:25:04;7.40;99.90
30534;DHT22;73248;52.398;9.814;2023-12-20T15:27:32;7.40;99.90
30534;DHT22;73248;52.398;9.814;2023-12-20T15:29:58;7.40;99.90
30534;DHT22;73248;52.398;9.814;2023-12-20T15:32:24;7.40;99.90
30534;DHT22;73248;52.398;9.814;2023-12-20T15:34:52;7.40;99.90
30534;DHT22;73248;52.398;9.814;2023-12-20T15:37:18;7.40;99.90
30534;DHT22;73248;52.398;9.814;2023-12-20T15:39:46;7.40;99.90
30534;DHT22;73248;52.398;9.814;2023-12-20T15:42:11;7.40;99.90
30534;DHT22;73248;52.398;9.814;2023-12-20T15:44:37;7.40;99.90
30534;DHT22;73248;52.398;9.814;2023-12-20T15:47:02;7.40;99.90
30534;DHT22;73248;52.398;9.814;2023-12-20T15:49:28;7.40;99.90